sensor_id;sensor_type;location;lat;lon;timestamp;P1;durP1;ratioP1;P2;durP2;ratioP2
48403;SDS011;34202;52.536;6.042;2023-01-26T12:07:56;15.00;;;2.30;;
48403;SDS011;34202;52.536;6.042;2023-01-26T12:13:40;18.90;;;2.80;;
48403;SDS011;34202;52.536;6.042;2023-01-26T12:19:22;15.80;;;2.90;;
48403;SDS011;34202;52.536;6.042;2023-01-26T12:24:31;19.60;;;3.30;;
48403;SDS011;34202;52.536;6.042;2023-01-26T12:45:56;10.40;;;1.80;;
48403;SDS011;34202;52.536;6.042;2023-01-26T12:51:04;11.40;;;2.80;;
48403;SDS011;34202;52.536;6.042;2023-01-26T12:56:30;11.40;;;2.20;;
48403;SDS011;34202;52.536;6.042;2023-01-26T13:01:39;9.60;;;1.60;;
48403;SDS011;34202;52.536;6.042;2023-01-26T13:06:41;14.40;;;2.90;;
48403;SDS011;34202;52.536;6.042;2023-01-26T13:59:12;11.00;;;1.90;;
48403;SDS011;34202;52.536;6.042;2023-01-26T14:04:20;5.20;;;1.00;;
48403;SDS011;34202;52.536;6.042;2023-01-26T14:09:24;8.00;;;2.30;;
48403;SDS011;34202;52.536;6.042;2023-01-26T14:14:28;11.90;;;1.70;;
48403;SDS011;34202;52.536;6.042;2023-01-26T14:19:30;18.20;;;2.50;;
48403;SDS011;34202;52.536;6.042;2023-01-26T14:24:32;12.70;;;1.10;;
48403;SDS011;34202;52.536;6.042;2023-01-26T14:29:36;11.30;;;1.70;;
48403;SDS011;34202;52.536;6.042;2023-01-26T14:34:38;10.50;;;1.90;;
48403;SDS011;34202;52.536;6.042;2023-01-26T14:45:30;12.50;;;2.80;;
48403;SDS011;34202;52.536;6.042;2023-01-26T14:50:31;10.20;;;1.50;;
48403;SDS011;34202;52.536;6.042;2023-01-26T14:55:33;8.40;;;2.20;;
48403;SDS011;34202;52.536;6.042;2023-01-26T15:00:35;19.80;;;2.20;;
48403;SDS011;34202;52.536;6.042;2023-01-26T15:05:38;6.30;;;1.30;;
48403;SDS011;34202;52.536;6.042;2023-01-26T15:10:45;8.90;;;1.30;;
48403;SDS011;34202;52.536;6.042;2023-01-26T15:16:16;8.10;;;1.40;;
48403;SDS011;34202;52.536;6.042;2023-01-26T15:21:19;8.90;;;1.30;;
48403;SDS011;34202;52.536;6.042;2023-01-26T15:31:33;8.90;;;1.70;;
48403;SDS011;34202;52.536;6.042;2023-01-26T15:36:48;6.50;;;1.70;;
48403;SDS011;34202;52.536;6.042;2023-01-26T15:47:09;7.10;;;1.20;;
48403;SDS011;34202;52.536;6.042;2023-01-26T15:52:11;9.00;;;1.90;;
48403;SDS011;34202;52.536;6.042;2023-01-26T15:57:16;13.50;;;2.30;;
48403;SDS011;34202;52.536;6.042;2023-01-26T16:02:17;10.10;;;2.40;;
48403;SDS011;34202;52.536;6.042;2023-01-26T16:07:19;10.30;;;2.20;;
48403;SDS011;34202;52.536;6.042;2023-01-26T16:12:19;15.10;;;2.00;;
48403;SDS011;34202;52.536;6.042;2023-01-26T16:17:19;11.40;;;2.90;;
48403;SDS011;34202;52.536;6.042;2023-01-26T16:22:20;12.40;;;3.00;;
48403;SDS011;34202;52.536;6.042;2023-01-26T16:27:20;16.40;;;4.00;;
48403;SDS011;34202;52.536;6.042;2023-01-26T16:32:28;12.60;;;3.00;;
48403;SDS011;34202;52.536;6.042;2023-01-26T16:37:28;18.80;;;4.20;;
48403;SDS011;34202;52.536;6.042;2023-01-26T16:42:28;21.00;;;4.30;;
48403;SDS011;34202;52.536;6.042;2023-01-26T16:47:30;11.50;;;2.80;;
48403;SDS011;34202;52.536;6.042;2023-01-26T16:52:34;14.80;;;4.90;;
48403;SDS011;34202;52.536;6.042;2023-01-26T16:57:34;17.00;;;4.20;;
48403;SDS011;34202;52.536;6.042;2023-01-26T17:02:34;18.90;;;3.10;;
48403;SDS011;34202;52.536;6.042;2023-01-26T17:07:35;16.70;;;4.10;;
48403;SDS011;34202;52.536;6.042;2023-01-26T17:12:36;15.10;;;3.20;;
48403;SDS011;34202;52.536;6.042;2023-01-26T17:17:36;22.60;;;5.30;;
48403;SDS011;34202;52.536;6.042;2023-01-26T17:22:37;22.00;;;4.60;;
48403;SDS011;34202;52.536;6.042;2023-01-26T17:27:37;18.10;;;4.10;;
48403;SDS011;34202;52.536;6.042;2023-01-26T17:32:38;21.30;;;4.40;;
48403;SDS011;34202;52.536;6.042;2023-01-26T17:37:38;21.40;;;4.10;;
48403;SDS011;34202;52.536;6.042;2023-01-26T17:42:39;10.90;;;3.00;;
48403;SDS011;34202;52.536;6.042;2023-01-26T17:47:39;13.90;;;3.60;;
48403;SDS011;34202;52.536;6.042;2023-01-26T17:52:40;21.40;;;2.70;;
48403;SDS011;34202;52.536;6.042;2023-01-26T17:57:40;11.80;;;1.70;;
48403;SDS011;34202;52.536;6.042;2023-01-26T18:02:40;18.10;;;2.20;;
48403;SDS011;34202;52.536;6.042;2023-01-26T18:07:40;14.10;;;2.60;;
48403;SDS011;34202;52.536;6.042;2023-01-26T18:12:41;16.00;;;2.50;;
48403;SDS011;34202;52.536;6.042;2023-01-26T18:17:41;15.20;;;3.10;;
48403;SDS011;34202;52.536;6.042;2023-01-26T18:22:42;13.00;;;3.20;;
48403;SDS011;34202;52.536;6.042;2023-01-26T18:27:42;15.00;;;3.10;;
48403;SDS011;34202;52.536;6.042;2023-01-26T18:32:43;12.60;;;3.10;;
48403;SDS011;34202;52.536;6.042;2023-01-26T18:37:43;8.70;;;2.60;;
48403;SDS011;34202;52.536;6.042;2023-01-26T18:42:43;26.10;;;4.70;;
48403;SDS011;34202;52.536;6.042;2023-01-26T18:47:44;13.90;;;1.90;;
48403;SDS011;34202;52.536;6.042;2023-01-26T18:52:46;24.60;;;5.40;;
48403;SDS011;34202;52.536;6.042;2023-01-26T18:57:46;18.10;;;2.40;;
48403;SDS011;34202;52.536;6.042;2023-01-26T19:02:48;20.70;;;3.70;;
48403;SDS011;34202;52.536;6.042;2023-01-26T19:07:48;29.10;;;4.70;;
48403;SDS011;34202;52.536;6.042;2023-01-26T19:12:48;19.10;;;3.30;;
48403;SDS011;34202;52.536;6.042;2023-01-26T19:17:49;15.50;;;3.50;;
48403;SDS011;34202;52.536;6.042;2023-01-26T19:22:49;15.10;;;2.90;;
48403;SDS011;34202;52.536;6.042;2023-01-26T19:27:53;17.10;;;2.60;;
48403;SDS011;34202;52.536;6.042;2023-01-26T19:32:53;16.90;;;3.20;;
48403;SDS011;34202;52.536;6.042;2023-01-26T19:38:12;17.20;;;3.60;;
48403;SDS011;34202;52.536;6.042;2023-01-26T19:43:12;18.10;;;3.20;;
48403;SDS011;34202;52.536;6.042;2023-01-26T19:48:15;19.10;;;2.90;;
48403;SDS011;34202;52.536;6.042;2023-01-26T19:53:15;16.40;;;4.80;;
48403;SDS011;34202;52.536;6.042;2023-01-26T19:58:15;14.10;;;3.90;;
48403;SDS011;34202;52.536;6.042;2023-01-26T20:03:16;30.30;;;4.50;;
48403;SDS011;34202;52.536;6.042;2023-01-26T20:08:17;13.00;;;2.80;;
48403;SDS011;34202;52.536;6.042;2023-01-26T20:13:18;18.20;;;4.00;;
48403;SDS011;34202;52.536;6.042;2023-01-26T20:18:19;15.90;;;4.10;;
48403;SDS011;34202;52.536;6.042;2023-01-26T20:23:20;15.90;;;4.10;;
48403;SDS011;34202;52.536;6.042;2023-01-26T20:28:22;28.10;;;5.10;;
48403;SDS011;34202;52.536;6.042;2023-01-26T20:33:22;10.30;;;3.10;;
48403;SDS011;34202;52.536;6.042;2023-01-26T20:38:22;20.90;;;4.80;;
48403;SDS011;34202;52.536;6.042;2023-01-26T20:43:23;9.70;;;2.60;;
48403;SDS011;34202;52.536;6.042;2023-01-26T20:48:23;14.50;;;3.20;;
48403;SDS011;34202;52.536;6.042;2023-01-26T20:53:23;22.00;;;5.60;;
48403;SDS011;34202;52.536;6.042;2023-01-26T20:58:24;19.20;;;3.50;;
48403;SDS011;34202;52.536;6.042;2023-01-26T21:03:24;10.00;;;3.40;;
48403;SDS011;34202;52.536;6.042;2023-01-26T21:08:25;12.70;;;3.10;;
48403;SDS011;34202;52.536;6.042;2023-01-26T21:13:25;13.60;;;4.20;;
48403;SDS011;34202;52.536;6.042;2023-01-26T21:18:27;36.60;;;4.90;;
48403;SDS011;34202;52.536;6.042;2023-01-26T21:23:27;20.20;;;4.60;;
48403;SDS011;34202;52.536;6.042;2023-01-26T21:28:28;10.20;;;2.70;;
48403;SDS011;34202;52.536;6.042;2023-01-26T21:33:30;10.00;;;2.60;;
48403;SDS011;34202;52.536;6.042;2023-01-26T21:38:32;13.20;;;2.60;;
48403;SDS011;34202;52.536;6.042;2023-01-26T21:43:34;17.10;;;2.90;;
48403;SDS011;34202;52.536;6.042;2023-01-26T21:48:34;22.70;;;4.70;;
48403;SDS011;34202;52.536;6.042;2023-01-26T21:53:35;20.80;;;3.40;;
48403;SDS011;34202;52.536;6.042;2023-01-26T21:58:35;21.70;;;3.30;;
48403;SDS011;34202;52.536;6.042;2023-01-26T22:03:55;22.20;;;5.40;;
48403;SDS011;34202;52.536;6.042;2023-01-26T22:08:57;20.60;;;4.30;;
48403;SDS011;34202;52.536;6.042;2023-01-26T22:13:57;21.40;;;4.70;;
48403;SDS011;34202;52.536;6.042;2023-01-26T22:18:58;19.70;;;4.00;;
48403;SDS011;34202;52.536;6.042;2023-01-26T22:23:58;16.40;;;4.30;;
48403;SDS011;34202;52.536;6.042;2023-01-26T22:28:58;16.00;;;3.70;;
48403;SDS011;34202;52.536;6.042;2023-01-26T22:33:59;14.10;;;3.30;;
48403;SDS011;34202;52.536;6.042;2023-01-26T22:39:00;16.20;;;4.10;;
48403;SDS011;34202;52.536;6.042;2023-01-26T22:44:00;16.30;;;3.50;;
48403;SDS011;34202;52.536;6.042;2023-01-26T22:49:01;24.30;;;5.40;;
48403;SDS011;34202;52.536;6.042;2023-01-26T22:54:03;12.10;;;2.80;;
48403;SDS011;34202;52.536;6.042;2023-01-26T22:59:04;24.20;;;5.40;;
48403;SDS011;34202;52.536;6.042;2023-01-26T23:04:04;10.60;;;3.40;;
48403;SDS011;34202;52.536;6.042;2023-01-26T23:09:06;12.10;;;3.70;;
48403;SDS011;34202;52.536;6.042;2023-01-26T23:14:06;18.90;;;5.90;;
48403;SDS011;34202;52.536;6.042;2023-01-26T23:19:07;12.30;;;5.00;;
48403;SDS011;34202;52.536;6.042;2023-01-26T23:24:07;19.10;;;6.70;;
48403;SDS011;34202;52.536;6.042;2023-01-26T23:29:07;18.20;;;5.40;;
48403;SDS011;34202;52.536;6.042;2023-01-26T23:34:08;12.10;;;4.80;;
48403;SDS011;34202;52.536;6.042;2023-01-26T23:39:08;13.30;;;5.10;;
48403;SDS011;34202;52.536;6.042;2023-01-26T23:44:08;15.30;;;6.20;;
48403;SDS011;34202;52.536;6.042;2023-01-26T23:49:09;13.20;;;6.30;;
48403;SDS011;34202;52.536;6.042;2023-01-26T23:54:09;17.40;;;7.60;;
48403;SDS011;34202;52.536;6.042;2023-01-26T23:59:09;17.10;;;6.70;;
